Terminal Aerodrome Forecast
Issued by NWS Missoula, MT

Home | Current Version | Previous Version | Text Only | Print | Product List | Glossary On
Versions: 1 2 3 4 5 6 7 8 9 10 11 12 13 14 15 16 17 18 19
000
FTUS45 KMSO 180022 RRA
TAFGPI
TAF
KGPI 180022Z 1800/1824 18008KT P6SM VCSH OVC030
     FM180700 17008KT 4SM -SN BR OVC025
     FM181000 18010G15KT 1 1/2SM -SN BR OVC020
     FM181600 19008KT 2SM -SN BR OVC050=

USA.gov is the U.S. government's official web portal to all federal, state and local government web resources and services.